createdAt,value
2023-08-29T00:00:58.029Z,50.908154
2023-08-29T00:01:58.077Z,50.908218
2023-08-29T00:02:58.111Z,50.908211
2023-08-29T00:03:58.048Z,50.908112
2023-08-29T00:04:58.074Z,50.908173
2023-08-29T00:05:57.990Z,50.908123
2023-08-29T00:06:58.010Z,50.908115
2023-08-29T00:07:58.001Z,50.908066
2023-08-29T00:08:57.967Z,50.908104
2023-08-29T00:09:57.969Z,50.908123
2023-08-29T00:10:57.950Z,50.908123
2023-08-29T00:11:57.966Z,50.908089
2023-08-29T00:12:57.960Z,50.908192
2023-08-29T00:13:57.931Z,50.908245
2023-08-29T00:14:57.924Z,50.908241
2023-08-29T00:15:57.920Z,50.908154
2023-08-29T00:16:57.928Z,50.908165
2023-08-29T00:17:57.982Z,50.908230
2023-08-29T00:18:57.891Z,50.908184
2023-08-29T00:19:57.884Z,50.908154
2023-08-29T00:20:57.880Z,50.908184
2023-08-29T00:21:57.906Z,50.908161
2023-08-29T00:22:57.862Z,50.908150
2023-08-29T00:23:57.884Z,50.908253
2023-08-29T00:24:57.857Z,50.908245
2023-08-29T00:25:57.840Z,50.908245
2023-08-29T00:26:57.858Z,50.908180
2023-08-29T00:27:57.836Z,50.908211
2023-08-29T00:28:57.814Z,50.908199
2023-08-29T00:29:57.804Z,50.908192
2023-08-29T00:30:57.807Z,50.908184
2023-08-29T00:31:57.862Z,50.908207
2023-08-29T00:32:57.834Z,50.908241
2023-08-29T00:33:57.773Z,50.908188
2023-08-29T00:34:57.769Z,50.908195
2023-08-29T00:35:57.761Z,50.908184
2023-08-29T00:36:57.777Z,50.908195
2023-08-29T00:37:57.750Z,50.908192
2023-08-29T00:38:57.740Z,50.908253
2023-08-29T00:39:57.732Z,50.908291
2023-08-29T00:40:57.749Z,50.908264
2023-08-29T00:41:57.739Z,50.908237
2023-08-29T00:42:57.703Z,50.908192
2023-08-29T00:43:57.701Z,50.908344
2023-08-29T00:44:57.687Z,50.908215
2023-08-29T00:45:57.768Z,50.908291
2023-08-29T00:46:57.695Z,50.908211
2023-08-29T00:47:57.737Z,50.908134
2023-08-29T00:48:57.666Z,50.908150
2023-08-29T00:49:57.651Z,50.908165
2023-08-29T00:50:57.670Z,50.908119
2023-08-29T00:51:57.632Z,50.908127
2023-08-29T00:52:57.628Z,50.908150
2023-08-29T00:53:57.619Z,50.908157
2023-08-29T00:54:57.627Z,50.908138
2023-08-29T00:55:57.632Z,50.908134
2023-08-29T00:56:57.598Z,50.908070
2023-08-29T00:57:57.624Z,50.908184
2023-08-29T00:58:57.581Z,50.908180
2023-08-29T00:59:57.595Z,50.908180
2023-08-29T01:00:57.588Z,50.908161
2023-08-29T01:01:57.553Z,50.908142
2023-08-29T01:02:57.580Z,50.908131
2023-08-29T01:03:57.598Z,50.908100
2023-08-29T01:04:57.561Z,50.908134
2023-08-29T01:05:57.528Z,50.908154
2023-08-29T01:06:57.526Z,50.908142
2023-08-29T01:07:57.512Z,50.908173
2023-08-29T01:08:57.500Z,50.908165
2023-08-29T01:09:57.520Z,50.908211
2023-08-29T01:10:57.490Z,50.908161
2023-08-29T01:11:57.478Z,50.908169
2023-08-29T01:12:57.472Z,50.908127
2023-08-29T01:13:57.493Z,50.908184
2023-08-29T01:14:57.482Z,50.908157
2023-08-29T01:15:57.469Z,50.908161
2023-08-29T01:16:57.440Z,50.908123
2023-08-29T01:17:57.490Z,50.908184
2023-08-29T01:18:57.444Z,50.908199
2023-08-29T01:19:57.422Z,50.908169
2023-08-29T01:20:57.408Z,50.908176
2023-08-29T01:21:57.391Z,50.908184
2023-08-29T01:23:08.179Z,50.908157
2023-08-29T01:23:59.407Z,50.908165
2023-08-29T01:24:57.377Z,50.908184
2023-08-29T01:25:57.364Z,50.908127
2023-08-29T01:26:57.353Z,50.908192
2023-08-29T01:27:57.345Z,50.908180
2023-08-29T01:28:57.374Z,50.908257
2023-08-29T01:29:57.348Z,50.908188
2023-08-29T01:30:57.381Z,50.908176
2023-08-29T01:31:57.317Z,50.908165
2023-08-29T01:32:57.360Z,50.908176
2023-08-29T01:33:57.333Z,50.908173
2023-08-29T01:34:57.308Z,50.908184
2023-08-29T01:35:57.285Z,50.908165
2023-08-29T01:36:57.276Z,50.908150
2023-08-29T01:37:57.292Z,50.908161
2023-08-29T01:38:57.265Z,50.908211
2023-08-29T01:39:57.266Z,50.908134
2023-08-29T01:40:57.244Z,50.908150
2023-08-29T01:41:57.240Z,50.908161
2023-08-29T01:42:57.253Z,50.908176
2023-08-29T01:43:57.219Z,50.908161
2023-08-29T01:44:57.254Z,50.908157
2023-08-29T01:45:57.274Z,50.908176
2023-08-29T01:46:57.210Z,50.908173
2023-08-29T01:47:57.241Z,50.908180
2023-08-29T01:48:57.182Z,50.908184
2023-08-29T01:49:57.176Z,50.908218
2023-08-29T01:50:57.174Z,50.908195
2023-08-29T01:51:57.186Z,50.908241
2023-08-29T01:52:57.177Z,50.908215
2023-08-29T01:53:57.153Z,50.908165
2023-08-29T01:54:57.140Z,50.908173
2023-08-29T01:55:57.124Z,50.908199
2023-08-29T01:56:57.160Z,50.908169
2023-08-29T01:57:57.121Z,50.908184
2023-08-29T01:58:57.108Z,50.908211
2023-08-29T01:59:57.096Z,50.908207
2023-08-29T02:00:58.344Z,50.908138
2023-08-29T02:01:57.121Z,50.908165
2023-08-29T02:02:57.093Z,50.908176
2023-08-29T02:03:57.066Z,50.908176
2023-08-29T02:04:57.056Z,50.908146
2023-08-29T02:05:57.052Z,50.908138
2023-08-29T02:06:57.062Z,50.908161
2023-08-29T02:07:57.047Z,50.908150
2023-08-29T02:08:57.021Z,50.908142
2023-08-29T02:09:57.013Z,50.908047
2023-08-29T02:10:57.029Z,50.908161
2023-08-29T02:11:57.021Z,50.908146
2023-08-29T02:12:56.997Z,50.908154
2023-08-29T02:13:56.983Z,50.908123
2023-08-29T02:14:56.978Z,50.908142
2023-08-29T02:15:56.998Z,50.908184
2023-08-29T02:16:57.036Z,50.908157
2023-08-29T02:17:56.985Z,50.908188
2023-08-29T02:18:56.945Z,50.908195
2023-08-29T02:19:56.935Z,50.908165
2023-08-29T02:20:56.961Z,50.908169
2023-08-29T02:21:56.919Z,50.908195
2023-08-29T02:22:56.913Z,50.908165
2023-08-29T02:23:56.898Z,50.908123
2023-08-29T02:24:56.894Z,50.908104
2023-08-29T02:25:56.918Z,50.908104
2023-08-29T02:26:56.894Z,50.908131
2023-08-29T02:27:56.867Z,50.908081
2023-08-29T02:28:57.857Z,50.908134
2023-08-29T02:29:56.879Z,50.908134
2023-08-29T02:30:56.916Z,50.908157
2023-08-29T02:31:56.840Z,50.908142
2023-08-29T02:32:56.867Z,50.908131
2023-08-29T02:33:56.845Z,50.908146
2023-08-29T02:34:56.834Z,50.908150
2023-08-29T02:35:56.802Z,50.908161
2023-08-29T02:36:56.814Z,50.908154
2023-08-29T02:37:56.791Z,50.908142
2023-08-29T02:38:56.785Z,50.908142
2023-08-29T02:39:56.799Z,50.908112
2023-08-29T02:40:56.762Z,50.908131
2023-08-29T02:41:56.760Z,50.908123
2023-08-29T02:42:56.750Z,50.908115
2023-08-29T02:43:56.740Z,50.908161
2023-08-29T02:44:56.758Z,50.908077
2023-08-29T02:45:56.725Z,50.908154
2023-08-29T02:46:56.720Z,50.908104
2023-08-29T02:47:56.769Z,50.908092
2023-08-29T02:48:56.728Z,50.908123
2023-08-29T02:49:56.725Z,50.908146
2023-08-29T02:50:56.697Z,50.908066
2023-08-29T02:51:56.682Z,50.908092
2023-08-29T02:52:56.668Z,50.908134
2023-08-29T02:53:56.688Z,50.908131
2023-08-29T02:54:56.666Z,50.908169
2023-08-29T02:55:56.644Z,50.908127
2023-08-29T02:56:56.645Z,50.908115
2023-08-29T02:57:56.634Z,50.908184
2023-08-29T02:58:56.652Z,50.908154
2023-08-29T02:59:56.617Z,50.908100
2023-08-29T03:00:56.614Z,50.908115
2023-08-29T03:01:56.598Z,50.908146
2023-08-29T03:02:56.754Z,50.908134
2023-08-29T03:03:56.721Z,50.908157
2023-08-29T03:04:56.590Z,50.908150
2023-08-29T03:05:56.570Z,50.908157
2023-08-29T03:06:56.561Z,50.908165
2023-08-29T03:07:56.625Z,50.908085
2023-08-29T03:08:56.550Z,50.908260
2023-08-29T03:09:56.551Z,50.908165
2023-08-29T03:10:56.532Z,50.908119
2023-08-29T03:11:56.526Z,50.908127
2023-08-29T03:12:56.533Z,50.908154
2023-08-29T03:13:56.503Z,50.908157
2023-08-29T03:14:56.500Z,50.908100
2023-08-29T03:15:56.503Z,50.908081
2023-08-29T03:16:56.486Z,50.908112
2023-08-29T03:17:56.540Z,50.908131
2023-08-29T03:18:56.463Z,50.908146
2023-08-29T03:19:56.464Z,50.908112
2023-08-29T03:20:56.445Z,50.908119
2023-08-29T03:21:56.462Z,50.908134
2023-08-29T03:22:56.470Z,50.908138
2023-08-29T03:23:56.427Z,50.908146
2023-08-29T03:24:56.417Z,50.908104
2023-08-29T03:25:56.409Z,50.908089
2023-08-29T03:26:56.432Z,50.908134
2023-08-29T03:27:56.393Z,50.908138
2023-08-29T03:28:56.384Z,50.908115
2023-08-29T03:29:56.389Z,50.908131
2023-08-29T03:30:56.370Z,50.908127
2023-08-29T03:31:56.399Z,50.908142
2023-08-29T03:32:56.395Z,50.908142
2023-08-29T03:33:56.349Z,50.908188
2023-08-29T03:34:56.352Z,50.908180
2023-08-29T03:35:56.358Z,50.908161
2023-08-29T03:36:56.351Z,50.908192
2023-08-29T03:37:56.316Z,50.908161
2023-08-29T03:38:56.309Z,50.908108
2023-08-29T03:39:56.311Z,50.908142
2023-08-29T03:40:56.319Z,50.908112
2023-08-29T03:41:56.289Z,50.908127
2023-08-29T03:42:56.281Z,50.908154
2023-08-29T03:43:56.278Z,50.908100
2023-08-29T03:44:56.267Z,50.908096
2023-08-29T03:45:56.303Z,50.908104
2023-08-29T03:46:56.258Z,50.908096
2023-08-29T03:47:56.271Z,50.908131
2023-08-29T03:48:56.247Z,50.908127
2023-08-29T03:49:56.230Z,50.908127
2023-08-29T03:50:56.263Z,50.908127
2023-08-29T03:51:56.222Z,50.908127
2023-08-29T03:52:56.212Z,50.908127
2023-08-29T03:53:56.203Z,50.908127
2023-08-29T03:54:56.219Z,50.908100
2023-08-29T03:55:56.210Z,50.908066
2023-08-29T03:56:56.183Z,50.908062
2023-08-29T03:57:56.174Z,50.908108
2023-08-29T03:58:56.164Z,50.908043
2023-08-29T03:59:56.189Z,50.908092
2023-08-29T04:00:56.156Z,50.908077
2023-08-29T04:01:56.141Z,50.908051
2023-08-29T04:02:56.193Z,50.908089
2023-08-29T04:03:56.253Z,50.908108
2023-08-29T04:04:56.240Z,50.908112
2023-08-29T04:05:56.129Z,50.908112
2023-08-29T04:06:56.102Z,50.908157
2023-08-29T04:07:56.088Z,50.908195
2023-08-29T04:08:56.088Z,50.908100
2023-08-29T04:09:56.111Z,50.908138
2023-08-29T04:10:56.090Z,50.908115
2023-08-29T04:11:56.071Z,50.908161
2023-08-29T04:12:56.079Z,50.908070
2023-08-29T04:13:56.089Z,50.908081
2023-08-29T04:14:56.064Z,50.908089
2023-08-29T04:15:56.042Z,50.908035
2023-08-29T04:16:56.022Z,50.908115
2023-08-29T04:17:56.072Z,50.908127
2023-08-29T04:18:56.040Z,50.908077
2023-08-29T04:19:56.007Z,50.908123
2023-08-29T04:20:56.004Z,50.908096
2023-08-29T04:21:55.985Z,50.908096
2023-08-29T04:22:55.977Z,50.908104
2023-08-29T04:23:55.995Z,50.908070
2023-08-29T04:24:55.968Z,50.908173
2023-08-29T04:25:55.947Z,50.908104
2023-08-29T04:26:55.969Z,50.908092
2023-08-29T04:27:55.944Z,50.908104
2023-08-29T04:28:55.966Z,50.908081
2023-08-29T04:29:55.940Z,50.908081
2023-08-29T04:30:55.912Z,50.908035
2023-08-29T04:31:56.915Z,50.908123
2023-08-29T04:32:55.921Z,50.908123
2023-08-29T04:33:55.911Z,50.908234
2023-08-29T04:34:55.880Z,50.908134
2023-08-29T04:35:55.876Z,50.908134
2023-08-29T04:36:55.868Z,50.908100
2023-08-29T04:37:55.972Z,50.908089
2023-08-29T04:38:55.882Z,50.908100
2023-08-29T04:39:55.850Z,50.908207
2023-08-29T04:40:55.835Z,50.908142
2023-08-29T04:41:55.838Z,50.908138
2023-08-29T04:42:55.842Z,50.908123
2023-08-29T04:43:55.819Z,50.908073
2023-08-29T04:44:55.804Z,50.907951
2023-08-29T04:45:55.824Z,50.907944
2023-08-29T04:46:55.795Z,50.908104
2023-08-29T04:47:55.872Z,50.908100
2023-08-29T04:48:55.779Z,50.908100
2023-08-29T04:49:55.766Z,50.908001
2023-08-29T04:50:55.760Z,50.908226
2023-08-29T04:51:55.755Z,50.908123
2023-08-29T04:52:55.778Z,50.907871
2023-08-29T04:53:55.730Z,50.908012
2023-08-29T04:54:55.737Z,50.908039
2023-08-29T04:55:55.723Z,50.908066
2023-08-29T04:56:55.711Z,50.908108
2023-08-29T04:57:55.746Z,50.908119
2023-08-29T04:58:55.694Z,50.908051
2023-08-29T04:59:55.680Z,50.908073
2023-08-29T05:00:55.700Z,50.908100
2023-08-29T05:01:55.694Z,50.908104
2023-08-29T05:02:55.777Z,50.908134
2023-08-29T05:03:55.660Z,50.908119
2023-08-29T05:04:55.660Z,50.908123
2023-08-29T05:05:55.640Z,50.908112
2023-08-29T05:06:55.659Z,50.908115
2023-08-29T05:07:55.624Z,50.908119
2023-08-29T05:08:55.621Z,50.908108
2023-08-29T05:09:55.671Z,50.908092
2023-08-29T05:10:55.609Z,50.908119
2023-08-29T05:11:55.612Z,50.908123
2023-08-29T05:12:55.593Z,50.908123
2023-08-29T05:13:55.578Z,50.908134
2023-08-29T05:14:55.575Z,50.908134
2023-08-29T05:15:55.625Z,50.908115
2023-08-29T05:16:55.579Z,50.908134
2023-08-29T05:17:55.797Z,50.908119
2023-08-29T05:18:55.533Z,50.908127
2023-08-29T05:19:55.543Z,50.908115
2023-08-29T05:20:56.045Z,50.908123
2023-08-29T05:21:56.515Z,50.908112
2023-08-29T05:22:55.510Z,50.908115
2023-08-29T05:23:55.535Z,50.908123
2023-08-29T05:24:55.492Z,50.908123
2023-08-29T05:25:55.510Z,50.908150
2023-08-29T05:26:55.484Z,50.908142
2023-08-29T05:27:55.481Z,50.908131
2023-08-29T05:28:55.482Z,50.908119
2023-08-29T05:29:55.457Z,50.908062
2023-08-29T05:30:55.577Z,50.908089
2023-08-29T05:31:55.437Z,50.908096
2023-08-29T05:32:55.516Z,50.908096
2023-08-29T05:33:55.429Z,50.908062
2023-08-29T05:34:55.412Z,50.908096
2023-08-29T05:35:55.442Z,50.908119
2023-08-29T05:36:55.408Z,50.908112
2023-08-29T05:37:55.398Z,50.908119
2023-08-29T05:38:55.395Z,50.908085
2023-08-29T05:39:55.437Z,50.908134
2023-08-29T05:40:55.381Z,50.908115
2023-08-29T05:41:56.380Z,50.908161
2023-08-29T05:42:55.368Z,50.908134
2023-08-29T05:43:55.372Z,50.908119
2023-08-29T05:44:55.382Z,50.908112
2023-08-29T05:45:56.969Z,50.908058
2023-08-29T05:46:56.373Z,50.908031
2023-08-29T05:47:55.341Z,50.908062
2023-08-29T05:48:55.308Z,50.908089
2023-08-29T05:49:55.320Z,50.908051
2023-08-29T05:50:55.302Z,50.908096
2023-08-29T05:51:55.300Z,50.908100
2023-08-29T05:52:55.272Z,50.908100
2023-08-29T05:53:55.301Z,50.908077
2023-08-29T05:54:55.288Z,50.908035
2023-08-29T05:55:55.254Z,50.908070
2023-08-29T05:56:55.249Z,50.908081
2023-08-29T05:57:55.244Z,50.908085
2023-08-29T05:58:55.249Z,50.908058
2023-08-29T05:59:55.216Z,50.908073
2023-08-29T06:00:55.227Z,50.908081
2023-08-29T06:01:55.198Z,50.908081
2023-08-29T06:02:55.277Z,50.908066
2023-08-29T06:03:55.274Z,50.908092
2023-08-29T06:04:55.180Z,50.908104
2023-08-29T06:05:55.173Z,50.908096
2023-08-29T06:06:55.168Z,50.908062
2023-08-29T06:08:08.905Z,50.908024
2023-08-29T06:08:57.164Z,50.908020
2023-08-29T06:09:55.137Z,50.908085
2023-08-29T06:10:55.126Z,50.908100
2023-08-29T06:11:55.131Z,50.908028
2023-08-29T06:12:55.143Z,50.908096
2023-08-29T06:13:55.127Z,50.908195
2023-08-29T06:14:55.093Z,50.908131
2023-08-29T06:15:55.090Z,50.908077
2023-08-29T06:16:55.104Z,50.908031
2023-08-29T06:17:55.135Z,50.908024
2023-08-29T06:18:55.068Z,50.908081
2023-08-29T06:19:55.047Z,50.908047
2023-08-29T06:20:55.105Z,50.908024
2023-08-29T06:21:55.043Z,50.908016
2023-08-29T06:22:55.058Z,50.908005
2023-08-29T06:23:55.088Z,50.907982
2023-08-29T06:24:55.014Z,50.907997
2023-08-29T06:25:55.007Z,50.907944
2023-08-29T06:26:54.999Z,50.908035
2023-08-29T06:27:55.016Z,50.908134
2023-08-29T06:28:54.981Z,50.908192
2023-08-29T06:29:54.982Z,50.908112
2023-08-29T06:30:55.006Z,50.908123
2023-08-29T06:31:54.986Z,50.908150
2023-08-29T06:32:55.054Z,50.908127
2023-08-29T06:33:54.938Z,50.908070
2023-08-29T06:34:54.930Z,50.908081
2023-08-29T06:35:54.923Z,50.908054
2023-08-29T06:36:54.972Z,50.908104
2023-08-29T06:37:54.915Z,50.908154
2023-08-29T06:38:54.912Z,50.908134
2023-08-29T06:39:54.899Z,50.908234
2023-08-29T06:40:54.891Z,50.908066
2023-08-29T06:41:54.928Z,50.908089
2023-08-29T06:42:54.876Z,50.908150
2023-08-29T06:43:54.870Z,50.908180
2023-08-29T06:44:54.906Z,50.908260
2023-08-29T06:45:54.859Z,50.908165
2023-08-29T06:46:54.871Z,50.908157
2023-08-29T06:47:54.889Z,50.908203
2023-08-29T06:48:54.832Z,50.908131
2023-08-29T06:49:54.821Z,50.908127
2023-08-29T06:50:54.810Z,50.908108
2023-08-29T06:51:54.824Z,50.908131
2023-08-29T06:52:54.793Z,50.908131
2023-08-29T06:53:54.781Z,50.908112
2023-08-29T06:54:54.773Z,50.908115
2023-08-29T06:55:54.824Z,50.908089
2023-08-29T06:56:54.782Z,50.908131
2023-08-29T06:57:54.754Z,50.908096
2023-08-29T06:58:54.746Z,50.908131
2023-08-29T06:59:54.742Z,50.908207
2023-08-29T07:00:54.833Z,50.908150
2023-08-29T07:01:54.721Z,50.908127
2023-08-29T07:02:54.821Z,50.908142
2023-08-29T07:03:54.738Z,50.908146
2023-08-29T07:04:54.705Z,50.908127
2023-08-29T07:05:54.715Z,50.908184
2023-08-29T07:06:54.679Z,50.908127
2023-08-29T07:07:55.674Z,50.908134
2023-08-29T07:08:54.658Z,50.908104
2023-08-29T07:09:54.686Z,50.908150
2023-08-29T07:10:54.675Z,50.908134
2023-08-29T07:11:54.663Z,50.908184
2023-08-29T07:12:54.641Z,50.908161
2023-08-29T07:13:54.623Z,50.908165
2023-08-29T07:14:54.664Z,50.908146
2023-08-29T07:15:54.612Z,50.908123
2023-08-29T07:17:56.655Z,50.908157
2023-08-29T07:18:54.583Z,50.908123
2023-08-29T07:19:54.616Z,50.908096
2023-08-29T07:20:54.566Z,50.908100
2023-08-29T07:21:54.761Z,50.908161
2023-08-29T07:22:54.567Z,50.908165
2023-08-29T07:23:54.578Z,50.908131
2023-08-29T07:24:54.573Z,50.908142
2023-08-29T07:25:54.540Z,50.908146
2023-08-29T07:26:54.525Z,50.908127
2023-08-29T07:27:54.518Z,50.908096
2023-08-29T07:28:54.532Z,50.908089
2023-08-29T07:29:54.504Z,50.908123
2023-08-29T07:30:54.527Z,50.908112
2023-08-29T07:31:54.510Z,50.908134
2023-08-29T07:32:54.515Z,50.908123
2023-08-29T07:33:54.496Z,50.908112
2023-08-29T07:34:54.462Z,50.908058
2023-08-29T07:35:54.458Z,50.908073
2023-08-29T07:36:54.452Z,50.908100
2023-08-29T07:37:54.446Z,50.908119
2023-08-29T07:38:54.453Z,50.908119
2023-08-29T07:39:54.421Z,50.908096
2023-08-29T07:40:54.423Z,50.908092
2023-08-29T07:41:54.417Z,50.908108
2023-08-29T07:43:26.350Z,50.908085
2023-08-29T07:43:54.392Z,50.908081
2023-08-29T07:44:54.378Z,50.908096
2023-08-29T07:45:54.463Z,50.908150
2023-08-29T07:47:08.271Z,50.908157
2023-08-29T07:47:56.461Z,50.908112
2023-08-29T07:48:54.350Z,50.908142
2023-08-29T07:49:54.381Z,50.908092
2023-08-29T07:50:54.336Z,50.908081
2023-08-29T07:51:54.329Z,50.908104
2023-08-29T07:52:54.343Z,50.908070
2023-08-29T07:53:54.338Z,50.908024
2023-08-29T07:54:54.306Z,50.908062
2023-08-29T07:55:54.298Z,50.908051
2023-08-29T07:56:55.380Z,50.908070
2023-08-29T07:57:54.304Z,50.908043
2023-08-29T07:58:55.272Z,50.908081
2023-08-29T07:59:54.266Z,50.908077
2023-08-29T08:00:54.254Z,50.908092
2023-08-29T08:01:54.350Z,50.908123
2023-08-29T08:02:54.319Z,50.908165
2023-08-29T08:03:54.262Z,50.908134
2023-08-29T08:04:54.224Z,50.908081
2023-08-29T08:05:54.218Z,50.908104
2023-08-29T08:06:54.266Z,50.908150
2023-08-29T08:07:54.199Z,50.908127
2023-08-29T08:08:54.195Z,50.908173
2023-08-29T08:09:54.186Z,50.908161
2023-08-29T08:10:54.174Z,50.907986
2023-08-29T08:11:54.207Z,50.907871
2023-08-29T08:12:54.157Z,50.908062
2023-08-29T08:13:54.157Z,50.908184
2023-08-29T08:14:54.146Z,50.908123
2023-08-29T08:15:54.197Z,50.908115
2023-08-29T08:16:54.189Z,50.908138
2023-08-29T08:17:54.154Z,50.908108
2023-08-29T08:18:54.127Z,50.908150
2023-08-29T08:19:54.109Z,50.908119
2023-08-29T08:20:54.130Z,50.908134
2023-08-29T08:21:54.094Z,50.908077
2023-08-29T08:22:54.092Z,50.908131
2023-08-29T08:23:54.078Z,50.908146
2023-08-29T08:24:54.078Z,50.908070
2023-08-29T08:25:54.092Z,50.908104
2023-08-29T08:26:54.060Z,50.908119
2023-08-29T08:27:54.049Z,50.908150
2023-08-29T08:28:54.038Z,50.908157
2023-08-29T08:29:54.034Z,50.908173
2023-08-29T08:30:54.045Z,50.908138
2023-08-29T08:31:54.014Z,50.908127
2023-08-29T08:32:54.003Z,50.908165
2023-08-29T08:33:54.005Z,50.908165
2023-08-29T08:34:54.018Z,50.908192
2023-08-29T08:35:57.491Z,50.908157
2023-08-29T08:36:54.973Z,50.908131
2023-08-29T08:37:53.971Z,50.908169
2023-08-29T08:38:53.955Z,50.908035
2023-08-29T08:39:53.980Z,50.907974
2023-08-29T08:40:53.943Z,50.908031
2023-08-29T08:41:54.009Z,50.908016
2023-08-29T08:42:53.926Z,50.908115
2023-08-29T08:43:53.964Z,50.908047
2023-08-29T08:44:54.000Z,50.907993
2023-08-29T08:45:53.929Z,50.907917
2023-08-29T08:46:53.892Z,50.907928
2023-08-29T08:47:53.921Z,50.907669
2023-08-29T08:48:53.878Z,50.907707
2023-08-29T08:49:53.899Z,50.907681
2023-08-29T08:50:53.858Z,50.907925
2023-08-29T08:51:53.857Z,50.908028
2023-08-29T08:52:53.856Z,50.908073
2023-08-29T08:53:53.837Z,50.907875
2023-08-29T08:54:53.863Z,50.908245
2023-08-29T08:55:53.821Z,50.908199
2023-08-29T08:56:53.830Z,50.908257
2023-08-29T08:57:53.805Z,50.908112
2023-08-29T08:58:53.828Z,50.907806
2023-08-29T08:59:53.792Z,50.907982
2023-08-29T09:00:53.791Z,50.907963
2023-08-29T09:01:53.801Z,50.907974
2023-08-29T09:02:53.861Z,50.907982
2023-08-29T09:03:53.818Z,50.907993
2023-08-29T09:04:53.752Z,50.908012
2023-08-29T09:05:53.749Z,50.907944
2023-08-29T09:06:53.739Z,50.907990
2023-08-29T09:07:53.762Z,50.907963
2023-08-29T09:08:53.741Z,50.907986
2023-08-29T09:09:53.713Z,50.907986
2023-08-29T09:10:53.721Z,50.907944
2023-08-29T09:11:53.717Z,50.907990
2023-08-29T09:12:53.755Z,50.908028
2023-08-29T09:13:53.681Z,50.908054
2023-08-29T09:14:53.671Z,50.908035
2023-08-29T09:15:53.770Z,50.908043
2023-08-29T09:16:53.685Z,50.908039
2023-08-29T09:17:53.701Z,50.908047
2023-08-29T09:18:53.638Z,50.908043
2023-08-29T09:19:53.696Z,50.908112
2023-08-29T09:20:53.635Z,50.908077
2023-08-29T09:21:53.657Z,50.908035
2023-08-29T09:22:53.657Z,50.908100
2023-08-29T09:23:53.659Z,50.908039
2023-08-29T09:24:53.680Z,50.908100
2023-08-29T09:25:53.617Z,50.908192
2023-08-29T09:26:53.648Z,50.908154
2023-08-29T09:27:53.587Z,50.908012
2023-08-29T09:28:53.601Z,50.908005
2023-08-29T09:29:53.563Z,50.908031
2023-08-29T09:30:53.562Z,50.908085
2023-08-29T09:31:53.599Z,50.908070
2023-08-29T09:32:53.588Z,50.908054
2023-08-29T09:33:53.557Z,50.908035
2023-08-29T09:34:53.554Z,50.908028
2023-08-29T09:35:53.513Z,50.908073
2023-08-29T09:36:53.536Z,50.908073
2023-08-29T09:37:53.690Z,50.908089
2023-08-29T09:38:53.531Z,50.908089
2023-08-29T09:39:53.509Z,50.908089
2023-08-29T09:40:53.529Z,50.908070
2023-08-29T09:41:53.507Z,50.908070
2023-08-29T09:42:53.484Z,50.908115
2023-08-29T09:43:53.455Z,50.908073
2023-08-29T09:44:53.477Z,50.908089
2023-08-29T09:45:53.674Z,50.908096
2023-08-29T09:46:53.472Z,50.908100
2023-08-29T09:47:53.477Z,50.908089
2023-08-29T09:48:53.412Z,50.908081
2023-08-29T09:49:53.403Z,50.908051
2023-08-29T09:50:53.445Z,50.908062
2023-08-29T09:51:53.470Z,50.908070
2023-08-29T09:52:53.393Z,50.908070
2023-08-29T09:53:53.436Z,50.908054
2023-08-29T09:54:53.400Z,50.908051
2023-08-29T09:55:53.411Z,50.908085
2023-08-29T09:56:53.364Z,50.908089
2023-08-29T09:57:53.403Z,50.908081
2023-08-29T09:58:53.343Z,50.908092
2023-08-29T09:59:53.343Z,50.908081
2023-08-29T10:00:53.422Z,50.908085
2023-08-29T10:01:53.319Z,50.908115
2023-08-29T10:02:53.358Z,50.908108
2023-08-29T10:03:53.305Z,50.908085
2023-08-29T10:04:53.342Z,50.908073
2023-08-29T10:05:53.339Z,50.908081
2023-08-29T10:06:53.280Z,50.908039
2023-08-29T10:07:53.268Z,50.908085
2023-08-29T10:08:53.261Z,50.908081
2023-08-29T10:09:53.274Z,50.908104
2023-08-29T10:10:53.247Z,50.908123
2023-08-29T10:11:55.335Z,50.908112
2023-08-29T10:12:54.231Z,50.908066
2023-08-29T10:13:53.259Z,50.908051
2023-08-29T10:14:53.247Z,50.908081
2023-08-29T10:15:53.289Z,50.908081
2023-08-29T10:16:53.341Z,50.908085
2023-08-29T10:17:53.260Z,50.908066
2023-08-29T10:18:53.188Z,50.908100
2023-08-29T10:19:53.214Z,50.908123
2023-08-29T10:20:53.172Z,50.908108
2023-08-29T10:21:53.165Z,50.908112
2023-08-29T10:22:53.157Z,50.908081
2023-08-29T10:23:53.175Z,50.908089
2023-08-29T10:24:53.167Z,50.908112
2023-08-29T10:25:53.134Z,50.908150
2023-08-29T10:26:53.128Z,50.908123
2023-08-29T10:27:53.122Z,50.908138
2023-08-29T10:28:53.146Z,50.908077
2023-08-29T10:29:53.102Z,50.908012
2023-08-29T10:30:53.208Z,50.908089
2023-08-29T10:31:53.087Z,50.908123
2023-08-29T10:32:53.154Z,50.908127
2023-08-29T10:33:53.091Z,50.908070
2023-08-29T10:34:53.063Z,50.908062
2023-08-29T10:35:53.062Z,50.908081
2023-08-29T10:36:53.079Z,50.908070
2023-08-29T10:37:53.086Z,50.908146
2023-08-29T10:38:53.057Z,50.908257
2023-08-29T10:39:53.037Z,50.908310
2023-08-29T10:40:53.023Z,50.908340
2023-08-29T10:41:53.019Z,50.908344
2023-08-29T10:42:53.083Z,50.908344
2023-08-29T10:43:52.994Z,50.908306
2023-08-29T10:44:52.984Z,50.908268
2023-08-29T10:45:53.983Z,50.908287
2023-08-29T10:46:53.025Z,50.908108
2023-08-29T10:47:53.011Z,50.908138
2023-08-29T10:48:52.972Z,50.908115
2023-08-29T10:49:52.942Z,50.908092
2023-08-29T10:50:52.937Z,50.908127
2023-08-29T10:51:52.927Z,50.908108
2023-08-29T10:52:52.945Z,50.908134
2023-08-29T10:53:53.003Z,50.908108
2023-08-29T10:54:52.906Z,50.908142
2023-08-29T10:55:52.914Z,50.908138
2023-08-29T10:56:52.950Z,50.908188
2023-08-29T10:57:52.967Z,50.908108
2023-08-29T10:58:52.878Z,50.908157
2023-08-29T10:59:52.865Z,50.908150
2023-08-29T11:00:52.904Z,50.908184
2023-08-29T11:01:52.902Z,50.908161
2023-08-29T11:02:52.869Z,50.908119
2023-08-29T11:03:52.981Z,50.908131
2023-08-29T11:04:56.460Z,50.908096
2023-08-29T11:05:53.871Z,50.908089
2023-08-29T11:06:52.839Z,50.908146
2023-08-29T11:07:52.805Z,50.908157
2023-08-29T11:08:52.837Z,50.908157
2023-08-29T11:09:52.789Z,50.908176
2023-08-29T11:10:52.807Z,50.908176
2023-08-29T11:11:52.801Z,50.908173
2023-08-29T11:12:52.766Z,50.908127
2023-08-29T11:13:52.753Z,50.908165
2023-08-29T11:14:52.867Z,50.908157
2023-08-29T11:15:52.767Z,50.908188
2023-08-29T11:16:52.783Z,50.908157
2023-08-29T11:17:52.738Z,50.908115
2023-08-29T11:18:52.721Z,50.908134
2023-08-29T11:19:52.714Z,50.908291
2023-08-29T11:20:52.730Z,50.908203
2023-08-29T11:21:52.692Z,50.908165
2023-08-29T11:22:52.688Z,50.908131
2023-08-29T11:24:05.564Z,50.908249
2023-08-29T11:24:54.668Z,50.908321
2023-08-29T11:25:52.692Z,50.908154